Time;durP1;ratioP1;P1;durP2;ratioP2;P2;SDS_P1;SDS_P2;PMS_P1;PMS_P2;Temp;Humidity;BMP_temperature;BMP_pressure;BME280_temperature;BME280_humidity;BME280_pressure;Samples;Min_cycle;Max_cycle;Signal;HPM_P1;HPM_P2
2021/11/11 00:01:46;;;;;;;;;119.25;99.25;;;;;7.07;69.00;102198.53;5009090;28;52502;-73
2021/11/11 00:04:12;;;;;;;;;123.75;100.50;;;;;7.06;69.12;102209.88;5003690;28;61213;-74
2021/11/11 00:06:38;;;;;;;;;133.75;107.50;;;;;6.96;68.75;102190.16;5002750;28;45595;-74
2021/11/11 00:09:04;;;;;;;;;129.50;104.75;;;;;6.95;68.87;102180.47;4997699;28;45552;-73
2021/11/11 00:11:30;;;;;;;;;126.25;101.75;;;;;7.01;68.80;102198.25;4997299;28;45278;-73
2021/11/11 00:13:55;;;;;;;;;127.00;108.50;;;;;6.98;68.75;102203.38;4995897;28;46440;-75
2021/11/11 00:16:21;;;;;;;;;125.50;97.50;;;;;6.97;68.91;102197.19;4995831;28;58972;-73
2021/11/11 00:18:46;;;;;;;;;118.75;97.50;;;;;6.96;68.95;102195.41;4996624;28;45341;-73
2021/11/11 00:21:11;;;;;;;;;112.50;97.75;;;;;6.96;69.12;102195.41;5008352;28;50650;-73
2021/11/11 00:23:37;;;;;;;;;120.75;94.50;;;;;6.95;68.83;102190.97;5008157;28;45547;-73
2021/11/11 00:26:02;;;;;;;;;113.50;91.75;;;;;6.93;68.96;102181.25;4998804;28;47468;-73
2021/11/11 00:28:28;;;;;;;;;115.25;88.25;;;;;6.93;68.85;102183.88;5008837;28;45349;-74
2021/11/11 00:30:53;;;;;;;;;103.00;84.50;;;;;6.93;68.97;102181.25;5008982;28;45560;-73
2021/11/11 00:33:19;;;;;;;;;99.25;76.50;;;;;6.91;69.09;102183.78;4995596;28;61613;-74
2021/11/11 00:35:44;;;;;;;;;94.75;69.75;;;;;6.92;68.91;102187.31;4996619;28;45429;-73
2021/11/11 00:38:10;;;;;;;;;104.25;77.25;;;;;6.89;68.95;102174.03;4996153;28;45437;-73
2021/11/11 00:40:35;;;;;;;;;105.00;84.75;;;;;6.85;68.97;102172.09;5006408;28;52973;-73
2021/11/11 00:43:01;;;;;;;;;103.75;82.25;;;;;6.83;68.86;102172.94;4999660;28;46048;-74
2021/11/11 00:45:26;;;;;;;;;101.00;81.00;;;;;6.86;68.78;102166.91;5014293;28;58639;-73
2021/11/11 00:47:52;;;;;;;;;101.00;81.00;;;;;6.81;68.80;102171.03;4999860;28;45327;-73
2021/11/11 00:50:19;;;;;;;;;102.75;82.00;;;;;6.78;68.93;102166.56;4999645;28;45422;-73
2021/11/11 00:52:44;;;;;;;;;103.00;82.50;;;;;6.83;68.97;102186.06;4999898;28;45549;-73
2021/11/11 00:55:10;;;;;;;;;106.00;89.50;;;;;6.82;69.11;102176.38;4998759;28;45541;-73
2021/11/11 00:57:36;;;;;;;;;104.50;89.00;;;;;6.82;69.33;102178.13;4998844;28;51041;-73
2021/11/11 01:00:02;;;;;;;;;119.75;92.75;;;;;6.82;69.30;102171.13;5010235;28;45350;-73
2021/11/11 01:02:27;;;;;;;;;107.50;92.75;;;;;6.82;69.22;102170.25;5008798;28;45921;-73
2021/11/11 01:04:53;;;;;;;;;116.00;91.75;;;;;6.82;69.36;102168.50;5015049;28;45394;-75
2021/11/11 01:07:18;;;;;;;;;126.00;99.25;;;;;6.79;69.42;102164.81;5015341;28;57415;-74
2021/11/11 01:09:44;;;;;;;;;115.25;95.00;;;;;6.81;69.03;102158.81;5006226;28;52373;-73
2021/11/11 01:12:09;;;;;;;;;116.75;96.25;;;;;6.81;69.10;102165.78;4999217;28;45552;-73
2021/11/11 01:14:35;;;;;;;;;106.75;93.00;;;;;6.74;69.01;102159.34;4995575;28;45524;-74
2021/11/11 01:17:00;;;;;;;;;105.50;88.75;;;;;6.79;68.99;102163.09;4999450;28;45374;-75
2021/11/11 01:19:26;;;;;;;;;113.75;88.25;;;;;6.76;69.08;102162.94;4998738;28;52069;-74
2021/11/11 01:21:51;;;;;;;;;107.00;84.25;;;;;6.71;69.01;102148.72;4999390;28;52952;-73
2021/11/11 01:24:17;;;;;;;;;110.00;85.75;;;;;6.74;68.83;102158.47;4999136;28;45487;-75
2021/11/11 01:26:42;;;;;;;;;101.50;78.25;;;;;6.67;69.07;102149.41;5001333;28;45192;-74
2021/11/11 01:29:08;;;;;;;;;107.50;83.00;;;;;6.73;69.13;102152.31;5012943;28;45645;-75
2021/11/11 01:31:33;;;;;;;;;102.50;80.00;;;;;6.73;68.99;102154.03;5002457;28;46522;-74
2021/11/11 01:33:59;;;;;;;;;103.50;75.75;;;;;6.67;69.09;102149.41;4997689;28;47417;-74
2021/11/11 01:36:24;;;;;;;;;95.00;75.00;;;;;6.70;68.96;102148.63;5010769;28;45406;-73
2021/11/11 01:38:49;;;;;;;;;96.00;73.25;;;;;6.70;69.14;102153.88;5005866;28;48784;-74
2021/11/11 01:41:15;;;;;;;;;97.50;75.50;;;;;6.71;69.25;102156.59;4998510;28;51558;-74
2021/11/11 01:43:40;;;;;;;;;95.50;70.75;;;;;6.71;69.20;102151.34;4999060;28;45366;-73
2021/11/11 01:46:06;;;;;;;;;94.25;73.75;;;;;6.71;69.36;102145.19;5007732;28;45673;-73
2021/11/11 01:48:31;;;;;;;;;95.00;71.00;;;;;6.72;69.26;102142.66;5004401;28;45651;-74
2021/11/11 01:50:57;;;;;;;;;97.00;72.50;;;;;6.71;69.27;102140.84;4998447;28;48948;-73
2021/11/11 01:53:24;;;;;;;;;95.25;72.00;;;;;6.72;69.10;102137.41;4998724;28;45319;-74
2021/11/11 01:55:49;;;;;;;;;100.75;77.00;;;;;6.71;69.24;102138.22;5008076;28;45301;-74
2021/11/11 01:58:15;;;;;;;;;99.00;73.00;;;;;6.70;68.85;102139.03;4999053;28;45188;-74
2021/11/11 02:00:47;;;;;;;;;100.25;77.25;;;;;6.64;69.23;102123.00;5024890;28;46466;-73
2021/11/11 02:03:14;;;;;;;;;99.25;71.75;;;;;6.69;69.06;102129.38;4998583;28;45487;-74
2021/11/11 02:05:40;;;;;;;;;102.75;76.25;;;;;6.64;69.02;102114.22;5009430;28;45220;-75
2021/11/11 02:08:05;;;;;;;;;102.00;71.50;;;;;6.62;69.15;102114.16;5007189;28;45601;-73
2021/11/11 02:10:33;;;;;;;;;93.00;70.00;;;;;6.65;68.93;102121.25;5001770;28;46262;-73
2021/11/11 02:12:58;;;;;;;;;99.50;76.00;;;;;6.61;68.47;102124.59;5008289;28;45266;-74
2021/11/11 02:15:23;;;;;;;;;92.25;70.50;;;;;6.63;68.77;102130.81;5006997;28;45624;-74
2021/11/11 02:17:50;;;;;;;;;97.50;73.50;;;;;6.56;68.79;102124.38;5014379;28;50976;-76
2021/11/11 02:20:23;;;;;;;;;97.50;70.25;;;;;6.57;68.72;102119.19;5008324;28;46337;-76
2021/11/11 02:22:49;;;;;;;;;94.75;73.75;;;;;6.55;68.67;102117.28;5003248;28;45287;-73
2021/11/11 02:25:16;;;;;;;;;102.25;75.75;;;;;6.52;68.71;102120.69;5007292;28;45434;-73
2021/11/11 02:27:42;;;;;;;;;96.00;70.50;;;;;6.51;69.04;102123.25;4998882;28;45329;-73
2021/11/11 02:30:08;;;;;;;;;96.50;71.25;;;;;6.49;68.92;102127.50;5011505;28;45613;-74
2021/11/11 02:32:35;;;;;;;;;99.00;70.50;;;;;6.51;69.17;102133.75;4998398;28;45494;-74
2021/11/11 02:35:00;;;;;;;;;95.50;71.25;;;;;6.51;68.98;102139.00;4998288;28;52722;-73
2021/11/11 02:37:29;;;;;;;;;98.00;70.25;;;;;6.43;69.34;102125.47;4997595;28;45535;-74
2021/11/11 02:39:55;;;;;;;;;96.25;70.00;;;;;6.53;69.23;102139.94;5001111;28;46341;-73
2021/11/11 02:42:20;;;;;;;;;94.50;68.00;;;;;6.53;69.16;102134.69;5011957;28;45535;-74
2021/11/11 02:44:46;;;;;;;;;93.00;67.00;;;;;6.51;68.79;102131.13;5001609;28;45410;-74
2021/11/11 02:47:11;;;;;;;;;93.25;68.00;;;;;6.50;69.11;102132.84;4998353;28;51809;-73
2021/11/11 02:49:37;;;;;;;;;96.25;69.00;;;;;6.48;68.93;102123.09;5004072;28;46375;-74
2021/11/11 02:52:02;;;;;;;;;89.50;68.25;;;;;6.48;68.69;102125.72;5012967;28;51141;-73
2021/11/11 02:54:28;;;;;;;;;92.00;66.50;;;;;6.47;69.30;102127.44;5008728;28;45287;-74
2021/11/11 02:56:53;;;;;;;;;92.00;66.75;;;;;6.44;68.77;102124.66;4998017;28;54735;-74
2021/11/11 02:59:19;;;;;;;;;91.25;67.25;;;;;6.47;68.74;102129.16;4998225;28;46289;-73
2021/11/11 03:01:44;;;;;;;;;95.25;70.50;;;;;6.46;68.76;102132.63;5003300;28;57374;-73
2021/11/11 03:04:09;;;;;;;;;93.75;70.00;;;;;6.38;68.85;102124.34;5005658;28;52262;-73
2021/11/11 03:06:38;;;;;;;;;94.25;67.25;;;;;6.41;68.59;102129.78;4998146;28;45224;-75
2021/11/11 03:09:04;;;;;;;;;93.00;68.50;;;;;6.41;68.69;102128.88;4998228;28;47318;-74
2021/11/11 03:11:30;;;;;;;;;94.00;69.25;;;;;6.39;68.66;102134.06;5000227;28;45634;-75
2021/11/11 03:13:55;;;;;;;;;96.25;69.50;;;;;6.42;69.14;102138.53;5008221;28;45761;-73
2021/11/11 03:16:21;;;;;;;;;92.50;67.75;;;;;6.45;69.50;102143.94;5011044;28;45373;-73
2021/11/11 03:18:47;;;;;;;;;91.50;68.00;;;;;6.47;69.67;102131.78;4997389;28;47455;-73
2021/11/11 03:21:12;;;;;;;;;92.25;68.25;;;;;6.47;69.54;102127.44;4979733;28;57646;-74
2021/11/11 03:23:38;;;;;;;;;89.25;65.75;;;;;6.53;69.54;102121.59;4997693;28;45292;-73
2021/11/11 03:26:03;;;;;;;;;90.50;68.00;;;;;6.56;69.63;102121.75;5008940;28;45396;-73
2021/11/11 03:28:29;;;;;;;;;90.25;67.50;;;;;6.54;69.69;102111.16;4996133;28;57614;-73
2021/11/11 03:30:55;;;;;;;;;94.75;67.25;;;;;6.61;69.63;102116.72;4997417;28;45484;-74
2021/11/11 03:33:20;;;;;;;;;95.75;67.75;;;;;6.66;69.91;102133.56;4997592;28;45406;-75
2021/11/11 03:35:46;;;;;;;;;83.00;65.50;;;;;6.67;69.52;102130.13;4996965;28;56340;-74
2021/11/11 03:38:11;;;;;;;;;89.50;64.00;;;;;6.66;69.77;102128.31;4996532;28;46324;-74
2021/11/11 03:40:38;;;;;;;;;89.25;67.50;;;;;6.64;69.88;102132.59;5004966;28;45516;-73
2021/11/11 03:43:04;;;;;;;;;93.75;66.75;;;;;6.71;69.77;102138.22;5003957;28;45388;-73
2021/11/11 03:45:30;;;;;;;;;90.25;66.25;;;;;6.71;69.65;102145.19;5002565;28;45977;-74
2021/11/11 03:47:55;;;;;;;;;93.50;66.25;;;;;6.69;69.95;102137.25;4997385;28;46330;-73
2021/11/11 03:50:21;;;;;;;;;87.75;66.25;;;;;6.66;70.31;102134.50;4997250;28;45409;-73
2021/11/11 03:52:46;;;;;;;;;81.75;60.75;;;;;6.63;70.06;102129.06;4995884;28;45435;-73
2021/11/11 03:55:12;;;;;;;;;90.50;66.25;;;;;6.71;70.42;102138.22;4997646;28;45406;-73
2021/11/11 03:57:38;;;;;;;;;84.50;61.75;;;;;6.66;70.53;102136.19;4996111;28;46213;-74
2021/11/11 04:00:08;;;;;;;;;83.75;62.50;;;;;6.72;70.23;102145.28;5007381;28;45417;-73
2021/11/11 04:02:33;;;;;;;;;84.75;65.25;;;;;6.71;70.29;102137.31;4996906;28;45650;-75
2021/11/11 04:04:59;;;;;;;;;82.75;61.25;;;;;6.70;70.05;102144.28;4997127;28;45136;-73
2021/11/11 04:07:24;;;;;;;;;89.00;61.25;;;;;6.68;70.71;102138.06;5005951;28;46384;-74
2021/11/11 04:09:49;;;;;;;;;86.75;62.25;;;;;6.66;70.28;102134.50;5000835;28;57025;-74
2021/11/11 04:12:15;;;;;;;;;89.50;62.75;;;;;6.64;70.67;102135.22;4996442;28;49423;-74
2021/11/11 04:14:40;;;;;;;;;78.75;59.00;;;;;6.62;70.76;102140.41;4993671;28;46666;-75
2021/11/11 04:17:06;;;;;;;;;82.75;61.00;;;;;6.55;71.04;102133.03;5006158;28;46292;-76
2021/11/11 04:19:31;;;;;;;;;72.50;58.25;;;;;6.54;70.75;102147.88;4995501;28;52546;-75
2021/11/11 04:21:57;;;;;;;;;74.00;57.50;;;;;6.53;70.40;102151.34;5004441;28;45402;-74
2021/11/11 04:24:23;;;;;;;;;77.25;60.00;;;;;6.49;70.92;102156.38;5001486;28;49006;-73
2021/11/11 04:27:00;;;;;;;;;74.00;57.00;;;;;6.48;70.79;102165.97;4999192;28;57877;-73
2021/11/11 04:29:27;;;;;;;;;74.75;57.75;;;;;6.47;70.01;102166.78;5003795;28;45287;-73
2021/11/11 04:32:03;;;;;;;;;74.50;56.75;;;;;6.48;70.08;102170.31;5000769;28;45480;-74
2021/11/11 04:34:30;;;;;;;;;80.00;59.50;;;;;6.47;69.96;102177.28;5001015;28;45273;-73
2021/11/11 05:00:26;;;;;;;;;78.75;57.25;;;;;6.35;70.47;102187.19;4997026;28;45227;-74
2021/11/11 05:05:36;;;;;;;;;79.75;59.50;;;;;6.21;70.32;102160.25;5003852;28;45331;-73
2021/11/11 05:08:01;;;;;;;;;78.50;58.00;;;;;6.36;70.22;102182.84;4991673;28;46535;-73
2021/11/11 05:10:27;;;;;;;;;78.50;56.25;;;;;6.36;70.71;102193.34;4996476;28;45168;-73
2021/11/11 05:12:54;;;;;;;;;77.50;58.25;;;;;6.37;70.58;102195.13;4995215;28;45260;-73
2021/11/11 05:15:20;;;;;;;;;77.50;58.00;;;;;6.36;70.63;102193.34;4996459;28;45485;-73
2021/11/11 05:17:45;;;;;;;;;72.75;56.75;;;;;6.35;70.62;102200.31;4996306;28;45736;-75
2021/11/11 05:20:12;;;;;;;;;82.25;59.50;;;;;6.35;70.42;102196.78;5004603;28;45405;-73
2021/11/11 05:22:38;;;;;;;;;84.75;61.50;;;;;6.26;70.37;102181.47;5006806;28;45342;-74
2021/11/11 05:25:04;;;;;;;;;80.75;60.75;;;;;6.31;70.19;102190.47;4995921;28;45271;-75
2021/11/11 05:27:29;;;;;;;;;94.50;67.50;;;;;6.36;70.46;102193.34;4998040;28;46204;-73
2021/11/11 05:29:55;;;;;;;;;89.00;64.00;;;;;6.34;70.82;102180.16;4999779;28;45501;-73
2021/11/11 05:32:20;;;;;;;;;83.50;62.00;;;;;6.29;70.63;102184.25;5004938;28;45612;-73
2021/11/11 05:34:46;;;;;;;;;83.75;65.00;;;;;6.27;70.94;102180.66;5008827;28;45601;-74
2021/11/11 05:37:12;;;;;;;;;81.25;62.25;;;;;6.30;70.81;102186.94;4998945;28;62042;-74
2021/11/11 05:39:38;;;;;;;;;89.25;65.50;;;;;6.28;70.86;102193.84;4998243;28;45436;-73
2021/11/11 05:42:04;;;;;;;;;92.25;66.75;;;;;6.30;71.13;102196.53;5002304;28;45445;-73
2021/11/11 05:44:30;;;;;;;;;87.00;66.75;;;;;6.23;71.41;102190.09;5014225;28;45313;-73
2021/11/11 05:46:56;;;;;;;;;88.00;65.50;;;;;6.29;71.21;102198.28;5003758;28;45551;-75
2021/11/11 05:49:22;;;;;;;;;91.50;64.50;;;;;6.29;71.03;102205.25;4999269;28;45368;-74
2021/11/11 05:51:47;;;;;;;;;91.50;66.25;;;;;6.28;71.70;102206.97;4999717;28;45510;-74
2021/11/11 05:54:12;;;;;;;;;93.75;66.75;;;;;6.30;71.64;102210.56;5014173;28;45363;-73
2021/11/11 05:56:38;;;;;;;;;90.25;66.75;;;;;6.28;71.51;102201.72;5016054;28;62027;-73
2021/11/11 05:59:04;;;;;;;;;96.00;65.25;;;;;6.33;71.72;102216.78;4999931;28;45291;-73
2021/11/11 06:01:30;;;;;;;;;89.25;67.75;;;;;6.23;71.11;102208.47;5003074;28;45196;-73
2021/11/11 06:03:56;;;;;;;;;81.25;63.25;;;;;6.26;71.23;102216.47;4998923;28;45561;-73
2021/11/11 06:06:22;;;;;;;;;89.75;64.25;;;;;6.34;71.08;102229.06;4998893;28;46737;-76
2021/11/11 06:08:47;;;;;;;;;83.25;63.75;;;;;6.34;71.02;102234.31;4999089;28;45226;-75
2021/11/11 06:11:13;;;;;;;;;92.75;67.50;;;;;6.35;70.99;102236.13;4999637;28;45453;-75
2021/11/11 06:13:38;;;;;;;;;90.25;65.75;;;;;6.35;70.81;102244.91;4998809;28;45401;-74
2021/11/11 06:16:04;;;;;;;;;86.75;64.50;;;;;6.37;70.79;102251.09;4998160;28;60456;-73
2021/11/11 06:18:32;;;;;;;;;83.50;63.50;;;;;6.33;70.64;102251.78;5168158;22;46402;-74
2021/11/11 06:21:00;;;;;;;;;84.25;62.00;;;;;6.39;70.82;102264.28;5037779;28;45286;-73
2021/11/11 06:23:26;;;;;;;;;88.00;66.00;;;;;6.35;71.45;102244.91;5007674;28;45177;-74
2021/11/11 06:25:51;;;;;;;;;83.75;63.00;;;;;6.41;71.45;102260.03;5016423;28;45522;-75
2021/11/11 06:28:17;;;;;;;;;88.25;65.50;;;;;6.41;71.15;102274.06;5017883;28;45445;-74
2021/11/11 06:30:42;;;;;;;;;92.25;65.00;;;;;6.39;71.35;102290.53;5017892;28;45245;-73
2021/11/11 06:33:08;;;;;;;;;81.00;61.75;;;;;6.45;71.53;102298.75;5016337;28;54301;-74
2021/11/11 06:35:33;;;;;;;;;86.50;62.25;;;;;6.47;71.59;102297.09;5016768;28;45474;-75
2021/11/11 06:37:59;;;;;;;;;82.00;61.50;;;;;6.50;71.18;102302.50;5015955;28;45429;-76
2021/11/11 06:40:25;;;;;;;;;92.00;64.75;;;;;6.54;71.50;102288.69;5018111;28;46327;-76
2021/11/11 06:42:50;;;;;;;;;83.25;62.25;;;;;6.50;71.44;102297.25;5023233;28;45527;-76
2021/11/11 06:45:16;;;;;;;;;81.25;63.00;;;;;6.55;71.24;102290.47;5011640;28;55164;-74
2021/11/11 06:47:42;;;;;;;;;84.50;62.50;;;;;6.58;71.22;102301.16;4998900;28;45465;-74
2021/11/11 06:50:08;;;;;;;;;86.75;61.00;;;;;6.64;71.21;102306.72;5017158;28;45429;-75
2021/11/11 06:52:34;;;;;;;;;82.25;62.25;;;;;6.64;71.20;102290.06;5017635;28;45369;-75
2021/11/11 06:54:59;;;;;;;;;82.25;61.25;;;;;6.74;71.10;102318.56;5017669;28;45747;-74
2021/11/11 06:57:25;;;;;;;;;83.25;62.25;;;;;6.73;70.35;102301.94;5006093;28;45330;-75
2021/11/11 06:59:50;;;;;;;;;84.00;61.00;;;;;6.79;70.74;102317.09;5013422;28;45775;-74
2021/11/11 07:02:16;;;;;;;;;87.75;62.00;;;;;6.82;70.50;102312.00;5017130;28;54258;-74
2021/11/11 07:04:41;;;;;;;;;86.75;63.25;;;;;6.86;70.58;102321.81;5016739;28;58977;-74
2021/11/11 07:07:06;;;;;;;;;81.75;61.00;;;;;6.86;70.27;102321.81;5016553;28;45310;-75
2021/11/11 07:09:32;;;;;;;;;84.00;62.50;;;;;6.87;70.32;102315.75;5017878;28;45365;-74
2021/11/11 07:11:57;;;;;;;;;92.00;63.25;;;;;6.88;70.34;102321.91;5015911;28;50429;-78
2021/11/11 07:14:23;;;;;;;;;77.50;58.25;;;;;6.94;70.42;102330.09;5016851;28;45357;-73
2021/11/11 07:16:48;;;;;;;;;80.25;61.50;;;;;6.97;70.40;102330.22;5017380;28;45397;-76
2021/11/11 07:19:13;;;;;;;;;83.00;62.00;;;;;7.00;70.28;102336.53;5020669;28;50893;-74
2021/11/11 07:21:39;;;;;;;;;82.25;60.00;;;;;6.99;70.34;102323.34;5018369;28;45282;-74
2021/11/11 07:24:04;;;;;;;;;81.50;63.00;;;;;7.01;70.11;102324.28;5016694;28;46479;-74
2021/11/11 07:26:30;;;;;;;;;87.75;67.50;;;;;7.12;70.08;102330.06;5016147;28;47529;-74
2021/11/11 07:28:55;;;;;;;;;85.75;65.50;;;;;7.07;70.16;102307.09;5016928;28;50969;-74
2021/11/11 07:31:24;;;;;;;;;92.50;67.00;;;;;7.16;70.00;102319.81;5015258;28;45416;-74
2021/11/11 07:33:49;;;;;;;;;89.00;65.00;;;;;7.15;69.91;102322.38;5016679;28;45812;-74
2021/11/11 07:36:15;;;;;;;;;85.75;66.50;;;;;7.16;69.92;102318.91;5013378;28;45251;-74
2021/11/11 07:38:40;;;;;;;;;95.75;67.50;;;;;7.16;69.80;102318.91;5008442;28;48332;-74
2021/11/11 07:41:06;;;;;;;;;91.25;66.75;;;;;7.16;69.71;102322.44;5017049;28;45432;-74
2021/11/11 07:43:32;;;;;;;;;88.00;67.75;;;;;7.14;69.15;102321.47;5016415;28;45624;-74
2021/11/11 07:46:03;;;;;;;;;88.75;63.00;;;;;7.19;69.60;102322.59;5015387;28;45530;-74
2021/11/11 07:48:28;;;;;;;;;91.50;67.75;;;;;7.19;70.13;102312.09;5016022;28;45431;-74
2021/11/11 07:50:54;;;;;;;;;97.25;74.50;;;;;7.22;69.62;102314.84;5016454;28;45386;-76
2021/11/11 07:53:19;;;;;;;;;92.25;67.75;;;;;7.26;69.75;102319.41;5016144;28;59190;-74
2021/11/11 07:55:44;;;;;;;;;99.25;69.75;;;;;7.31;69.70;102325.81;5009875;28;54918;-74
2021/11/11 07:58:11;;;;;;;;;92.50;68.25;;;;;7.38;69.72;102327.00;5016105;28;45476;-73
2021/11/11 08:00:38;;;;;;;;;89.75;67.50;;;;;7.41;69.99;102316.63;5016631;28;45318;-74
2021/11/11 08:03:03;;;;;;;;;92.25;66.75;;;;;7.47;69.37;102323.91;5015821;28;45685;-74
2021/11/11 08:05:29;;;;;;;;;89.50;66.50;;;;;7.50;69.45;102322.31;5016219;28;45314;-74
2021/11/11 08:07:54;;;;;;;;;85.50;66.00;;;;;7.54;69.21;102312.84;5016859;28;45348;-74
2021/11/11 08:10:21;;;;;;;;;89.75;65.75;;;;;7.55;69.23;102317.28;5003350;28;46007;-74
2021/11/11 08:12:47;;;;;;;;;86.75;66.50;;;;;7.53;69.28;102311.94;5010821;28;46854;-75
2021/11/11 08:15:13;;;;;;;;;87.00;66.25;;;;;7.59;69.38;102300.81;5010604;28;45440;-74
2021/11/11 08:17:39;;;;;;;;;83.75;63.50;;;;;7.60;69.15;102302.63;5012957;28;45605;-76
2021/11/11 08:20:05;;;;;;;;;87.50;64.25;;;;;7.59;68.78;102304.34;5017847;28;45502;-76
2021/11/11 08:22:30;;;;;;;;;89.25;64.25;;;;;7.60;69.08;102305.25;5016609;28;46380;-74
2021/11/11 08:24:56;;;;;;;;;81.25;61.50;;;;;7.60;69.34;102311.41;5014716;28;45508;-74
2021/11/11 08:27:22;;;;;;;;;86.25;61.50;;;;;7.55;69.26;102297.13;5017130;28;45334;-76
2021/11/11 08:29:48;;;;;;;;;82.75;61.75;;;;;7.61;69.37;102307.03;5015000;28;45434;-75
2021/11/11 08:32:13;;;;;;;;;81.50;62.25;;;;;7.60;69.24;102303.50;5015841;28;46481;-74
2021/11/11 08:34:40;;;;;;;;;77.25;61.00;;;;;7.58;69.01;102301.66;5016445;28;45371;-74
2021/11/11 08:37:05;;;;;;;;;86.50;64.50;;;;;7.56;68.92;102298.97;5016606;28;45388;-74
2021/11/11 08:39:30;;;;;;;;;76.50;60.25;;;;;7.55;69.18;102298.88;5014252;28;45530;-74
2021/11/11 08:41:56;;;;;;;;;80.75;59.50;;;;;7.56;69.25;102298.03;5013697;28;45731;-74
2021/11/11 08:44:21;;;;;;;;;81.50;62.50;;;;;7.51;69.05;102275.91;5015473;28;45453;-75
2021/11/11 08:46:48;;;;;;;;;79.50;61.25;;;;;7.52;68.95;102281.25;5015599;28;45437;-75
2021/11/11 08:49:14;;;;;;;;;81.25;60.50;;;;;7.56;68.87;102285.81;5014204;28;45507;-75
2021/11/11 08:51:40;;;;;;;;;81.00;60.50;;;;;7.57;68.71;102281.47;5007208;28;46330;-77
2021/11/11 08:54:06;;;;;;;;;80.00;60.50;;;;;7.58;68.97;102280.63;5014629;28;47190;-74
2021/11/11 08:56:32;;;;;;;;;87.50;64.25;;;;;7.58;69.00;102273.63;5013236;28;45500;-75
2021/11/11 08:58:59;;;;;;;;;79.75;61.25;;;;;7.63;69.13;102275.59;5005563;28;45595;-75
2021/11/11 09:01:24;;;;;;;;;85.75;64.75;;;;;7.63;69.17;102260.72;5014888;28;46433;-73
2021/11/11 09:03:50;;;;;;;;;85.50;64.75;;;;;7.65;69.19;102253.78;5016656;28;52607;-75
2021/11/11 09:06:15;;;;;;;;;82.25;62.00;;;;;7.65;68.99;102261.66;5018824;28;45515;-74
2021/11/11 09:08:41;;;;;;;;;89.00;68.25;;;;;7.67;69.12;102267.91;5011961;28;51236;-74
2021/11/11 09:11:06;;;;;;;;;84.25;65.25;;;;;7.69;69.38;102261.00;5017826;28;45882;-75
2021/11/11 09:13:33;;;;;;;;;79.25;62.75;;;;;7.71;69.26;102259.31;5018962;28;45928;-75
2021/11/11 09:15:59;;;;;;;;;88.75;63.75;;;;;7.73;69.60;102256.78;5018768;28;45334;-75
2021/11/11 09:18:24;;;;;;;;;83.75;63.75;;;;;7.76;69.26;102263.06;5016679;28;45605;-79
2021/11/11 09:20:50;;;;;;;;;86.00;64.25;;;;;7.80;69.27;102270.25;5018074;28;46497;-75
2021/11/11 09:23:15;;;;;;;;;89.00;64.75;;;;;7.82;69.28;102252.81;5016683;28;53141;-76
2021/11/11 09:25:40;;;;;;;;;89.25;65.50;;;;;7.86;69.50;102249.50;5018575;28;45264;-75
2021/11/11 09:28:06;;;;;;;;;87.00;64.50;;;;;7.87;69.34;102259.19;5019130;28;45470;-75
2021/11/11 09:30:34;;;;;;;;;90.25;66.75;;;;;7.91;69.53;102265.47;5019015;28;46349;-75
2021/11/11 09:32:59;;;;;;;;;88.00;63.75;;;;;7.89;69.32;102251.38;5018103;28;46197;-74
2021/11/11 09:35:25;;;;;;;;;83.75;60.75;;;;;7.98;69.45;102261.38;5016870;28;45739;-75
2021/11/11 09:37:50;;;;;;;;;84.75;64.00;;;;;8.01;69.27;102266.81;5006176;28;45571;-74
2021/11/11 09:40:19;;;;;;;;;89.75;66.75;;;;;8.05;69.31;102260.84;5019165;28;46248;-74
2021/11/11 09:42:45;;;;;;;;;85.75;64.25;;;;;8.04;69.29;102237.97;5018759;28;45428;-74
2021/11/11 09:45:12;;;;;;;;;86.00;65.00;;;;;8.07;69.03;102252.19;5017731;28;45569;-74
2021/11/11 09:47:37;;;;;;;;;94.25;73.00;;;;;8.11;69.01;102251.50;5017085;28;45393;-74
2021/11/11 09:50:04;;;;;;;;;93.00;74.25;;;;;8.14;69.43;102246.34;5017551;28;45576;-74
2021/11/11 09:52:30;;;;;;;;;88.25;66.75;;;;;8.24;69.16;102263.44;5016330;28;45533;-74
2021/11/11 10:00:24;;;;;;;;;91.00;67.50;;;;;8.38;69.25;102271.97;5017265;28;45784;-73
2021/11/11 10:02:52;;;;;;;;;93.00;69.50;;;;;8.42;69.10;102268.66;5016410;28;45464;-75
2021/11/11 10:05:17;;;;;;;;;90.00;67.00;;;;;8.45;69.30;102267.84;5007351;28;45290;-74
2021/11/11 10:07:43;;;;;;;;;87.50;69.25;;;;;8.51;69.14;102263.75;5018029;28;45417;-74
2021/11/11 10:10:09;;;;;;;;;86.75;66.50;;;;;8.56;69.30;102256.94;5016621;28;47166;-75
2021/11/11 10:12:34;;;;;;;;;90.00;66.75;;;;;8.54;68.85;102245.47;5014578;28;45672;-73
2021/11/11 10:15:08;;;;;;;;;89.50;65.00;;;;;8.65;69.40;102257.34;5017478;28;45482;-74
2021/11/11 10:17:39;;;;;;;;;49.25;34.00;;;;;8.70;69.41;102270.69;5015042;28;45488;-73
2021/11/11 10:20:05;;;;;;;;;90.75;71.50;;;;;8.75;69.20;102261.25;5016466;28;46582;-73
2021/11/11 10:22:33;;;;;;;;;93.25;69.25;;;;;8.81;69.12;102261.50;5016166;28;45386;-73
2021/11/11 10:25:03;;;;;;;;;91.25;71.75;;;;;8.84;69.08;102247.53;5016275;28;45500;-73
2021/11/11 10:27:43;;;;;;;;;95.25;77.00;;;;;8.93;68.99;102243.56;5013297;28;45508;-73
2021/11/11 10:30:14;;;;;;;;;90.75;73.00;;;;;8.99;68.82;102231.47;5014016;28;46615;-73
2021/11/11 10:32:46;;;;;;;;;88.25;68.25;;;;;9.06;68.64;102220.34;5016465;28;45536;-73
2021/11/11 10:35:24;;;;;;;;;90.25;71.25;;;;;9.11;68.86;102221.44;5016617;28;45508;-73
2021/11/11 10:37:57;;;;;;;;;92.75;74.50;;;;;9.16;68.38;102210.22;5016257;28;45374;-73
2021/11/11 10:40:23;;;;;;;;;87.25;64.75;;;;;9.23;68.40;102207.81;4975449;28;46566;-73
2021/11/11 10:42:50;;;;;;;;;86.50;65.50;;;;;9.26;68.42;102206.19;5017117;28;45428;-73
2021/11/11 10:45:26;;;;;;;;;80.25;62.25;;;;;9.32;68.47;102202.88;5017574;28;45374;-76
2021/11/11 10:47:57;;;;;;;;;87.00;67.25;;;;;9.37;68.44;102201.31;5015511;28;45201;-73
2021/11/11 10:50:25;;;;;;;;;86.75;64.25;;;;;9.43;68.24;102210.38;5015674;28;45451;-74
2021/11/11 10:52:57;;;;;;;;;91.00;72.00;;;;;9.48;68.34;102223.75;5017224;28;45358;-74
2021/11/11 10:55:33;;;;;;;;;89.75;66.50;;;;;9.54;68.56;102226.59;5017271;28;45453;-73
2021/11/11 10:57:59;;;;;;;;;89.50;67.00;;;;;9.57;68.79;102213.53;5013381;28;45551;-73
2021/11/11 11:00:33;;;;;;;;;80.00;65.25;;;;;9.62;68.46;102214.59;5016010;28;45875;-74
2021/11/11 11:03:22;;;;;;;;;87.00;62.25;;;;;9.63;68.15;102212.84;5008580;28;45423;-75
2021/11/11 11:05:54;;;;;;;;;84.50;62.50;;;;;9.72;68.39;102218.47;5009797;28;45259;-75
2021/11/11 11:08:39;;;;;;;;;87.00;66.75;;;;;9.76;68.11;102208.94;5016981;28;45473;-75
2021/11/11 11:11:42;;;;;;;;;85.25;65.00;;;;;9.78;68.13;102205.50;5014936;28;46767;-73
2021/11/11 11:14:11;;;;;;;;;89.00;65.00;;;;;9.83;68.12;102198.66;5009391;28;45394;-74
2021/11/11 11:16:36;;;;;;;;;85.25;63.75;;;;;9.87;68.27;102197.03;5017293;28;45372;-74
2021/11/11 11:19:12;;;;;;;;;76.75;60.00;;;;;9.87;68.29;102182.09;5017617;28;45562;-73
2021/11/11 11:21:39;;;;;;;;;74.50;59.25;;;;;9.94;68.15;102185.84;5016786;28;48323;-73
2021/11/11 11:24:12;;;;;;;;;81.75;61.00;;;;;9.92;68.04;102166.44;5016612;28;45539;-73
2021/11/11 11:26:39;;;;;;;;;77.75;59.75;;;;;10.03;68.21;102178.25;5017223;28;45236;-73
2021/11/11 11:31:50;;;;;;;;;77.25;60.00;;;;;10.11;68.15;102175.88;5016106;28;45764;-73
2021/11/11 11:34:21;;;;;;;;;78.50;60.50;;;;;10.10;67.92;102150.31;5015196;28;45564;-75
2021/11/11 11:36:58;;;;;;;;;77.25;61.25;;;;;10.13;68.08;102146.06;5016256;28;45393;-73
2021/11/11 11:39:38;;;;;;;;;86.00;63.00;;;;;10.17;68.15;102147.03;5017123;28;45341;-74
2021/11/11 11:42:15;;;;;;;;;76.50;57.00;;;;;10.23;67.87;102153.47;5016543;28;45450;-73
2021/11/11 11:44:45;;;;;;;;;81.50;61.50;;;;;10.26;67.87;102150.03;5016704;28;45431;-75
2021/11/11 11:49:44;;;;;;;;;78.25;60.50;;;;;10.28;67.88;102174.75;5017577;28;45203;-77